Kinyo Maru No.2 — JD3099 — position and weather

sailwx.info

Track history (hours):
 
Tides and Currents Weather Stations Pressure Air Temp Water Temp Dewpoint Dewpoint Depression Visibility Wind Speed Wind Dir Waves Ship Positions

Kinyo Maru No.2

Last reported at 2017-Dec-10 12:32 UTC. Time now 2017-Dec-13 22:16 UTC.
Position N 41°19' E 141°35'.

Length 104 m; draft 4.8 m.

Type: Tanker. MMSI: 431001757.

Date/timePositionNaut miles runAvg speedWind from/ knotsBaromVisibWave heightAir tempDewpointWater temp
2017-Dec-10 12:32N 41°19' E 141°35'512.5
2017-Dec-10 12:10N 41°23' E 141°34'212.4
2017-Dec-10 12:00N 41°25' E 141°33'713.5
2017-Dec-10 11:30N 41°32' E 141°30'713.8
2017-Dec-10 11:00N 41°38' E 141°25'713.2
2017-Dec-10 10:30N 41°43' E 141°21'713.6
2017-Dec-10 10:00N 41°49' E 141°16'2 0.1
2017-Dec-09 22:31N 41°50' E 141°18'312.7
2017-Dec-09 22:16N 41°48' E 141°20'712.8
2017-Dec-09 21:43N 41°42' E 141°25'313.3
2017-Dec-09 21:28N 41°39' E 141°27'712.2
2017-Dec-09 20:53N 41°32' E 141°30'611.9
2017-Dec-09 20:25N 41°27' E 141°33'39211.9
2017-Dec-08 11:37N 35°00' E 140°12'315.0
2017-Dec-08 11:24N 34°59' E 140°08'914.3
2017-Dec-08 10:46N 34°53' E 139°59'713.4
2017-Dec-08 10:16N 34°50' E 139°52'413.3
2017-Dec-08 10:00N 34°48' E 139°48'2913.5
2017-Dec-08 07:50N 34°36' E 139°16'515.1
2017-Dec-08 07:30N 34°35' E 139°10'815.4
2017-Dec-08 06:59N 34°33' E 139°01'1514.7
2017-Dec-08 05:56N 34°31' E 138°42'714.7
2017-Dec-08 05:26N 34°30' E 138°33'814.3
2017-Dec-08 04:51N 34°28' E 138°23'614.1
2017-Dec-08 04:24N 34°28' E 138°16'1513.9
2017-Dec-08 03:21N 34°26' E 137°58'15111.3
2017-Dec-07 14:00N 33°53' E 135°00'713.4
2017-Dec-07 13:30N 33°60' E 135°01'713.4
2017-Dec-07 13:00N 34°06' E 135°04'3 2.2
2017-Dec-07 11:31N 34°07' E 135°07'0 0.0
2017-Dec-07 11:07N 34°07' E 135°07'0 0.0
2017-Dec-07 10:43N 34°07' E 135°07'0 0.0
2017-Dec-07 03:10N 34°07' E 135°07'0 0.1
2017-Dec-07 03:00N 34°07' E 135°07'1 2.0
2017-Dec-07 02:29N 34°08' E 135°06'0 0.1
2017-Dec-07 01:59N 34°08' E 135°06'0 0.0
2017-Dec-07 01:29N 34°08' E 135°06'0 0.1
2017-Dec-07 00:59N 34°08' E 135°06'0 0.0
2017-Dec-07 00:29N 34°08' E 135°06'0 0.0
2017-Dec-06 23:59N 34°08' E 135°06'0 0.1
2017-Dec-06 23:26N 34°08' E 135°06'0 0.1
2017-Dec-06 22:59N 34°08' E 135°06'0 0.0
2017-Dec-06 22:29N 34°08' E 135°06'0 0.0
2017-Dec-06 21:59N 34°08' E 135°06'0 0.0
2017-Dec-06 21:29N 34°08' E 135°06'0 0.0
2017-Dec-06 20:59N 34°08' E 135°06'  
2017-Dec-04 10:30N 34°32' E 135°20'0 0.0
2017-Dec-04 09:57N 34°32' E 135°20'0 0.1
2017-Dec-04 09:30N 34°32' E 135°20'0 0.0
2017-Dec-04 08:57N 34°32' E 135°20'0 0.1
2017-Dec-04 08:30N 34°32' E 135°20'0 0.0
2017-Dec-04 08:00N 34°32' E 135°20'3 6.9
2017-Dec-04 07:30N 34°30' E 135°17'714.1
2017-Dec-04 07:01N 34°26' E 135°10'713.7
2017-Dec-04 06:31N 34°22' E 135°04'612.2
2017-Dec-04 06:00N 34°17' E 134°59'612.9
2017-Dec-04 05:30N 34°12' E 135°04'713.2
2017-Dec-04 05:00N 34°09' E 135°12'0 0.1
2017-Dec-04 00:59N 34°09' E 135°12'0 0.7
2017-Dec-04 00:30N 34°09' E 135°12'2 4.1
2017-Dec-03 23:58N 34°09' E 135°09'0 0.0
2017-Dec-03 23:28N 34°09' E 135°09'0 0.1
2017-Dec-03 22:58N 34°09' E 135°09'0 0.1
2017-Dec-03 22:28N 34°09' E 135°09'0 0.0
2017-Dec-03 21:58N 34°09' E 135°09'0 0.1
2017-Dec-03 21:25N 34°09' E 135°09'0 0.0
2017-Dec-03 20:58N 34°09' E 135°09'0 0.0
2017-Dec-03 20:28N 34°09' E 135°09'0 0.0
2017-Dec-03 20:00N 34°09' E 135°09'0 0.2
2017-Dec-03 19:30N 34°10' E 135°09'611.3
2017-Dec-03 19:00N 34°13' E 135°03'612.4
2017-Dec-03 18:30N 34°17' E 134°58'714.2
2017-Dec-03 18:00N 34°24' E 135°00'714.1
2017-Dec-03 17:30N 34°31' E 135°02'612.5
2017-Dec-03 17:01N 34°37' E 134°60'917.5
2017-Dec-03 16:30N 34°33' E 134°50'714.9
2017-Dec-03 16:00N 34°30' E 134°42'714.3
2017-Dec-03 15:30N 34°27' E 134°34'714.2
2017-Dec-03 15:00N 34°25' E 134°26'914.4
2017-Dec-03 14:22N 34°24' E 134°15'515.2
2017-Dec-03 14:00N 34°26' E 134°09'72 3.5
2017-Dec-02 17:32N 34°01' E 132°46'012.9
2017-Dec-02 17:30N 34°01' E 132°46'611.9
2017-Dec-02 17:00N 33°56' E 132°41'611.6
2017-Dec-02 16:30N 33°52' E 132°36'612.4
2017-Dec-02 16:00N 33°48' E 132°31'712.8
2017-Dec-02 15:29N 33°44' E 132°24'2612.8
2017-Dec-02 13:26N 33°28' E 131°59'612.9
2017-Dec-02 12:58N 33°25' E 131°53'714.0
2017-Dec-02 12:29N 33°21' E 131°47'613.4
2017-Dec-02 12:01N 33°17' E 131°41'0 0.1
2017-Dec-02 04:43N 33°17' E 131°41'0 0.4
2017-Dec-02 04:30N 33°17' E 131°41'4 9.1
2017-Dec-02 04:00N 33°21' E 131°42'2 1.3
2017-Dec-02 02:36N 33°23' E 131°43'0 0.0
2017-Dec-02 02:30N 33°23' E 131°43'0 0.0
2017-Dec-02 02:00N 33°23' E 131°43'0 0.0
2017-Dec-02 01:30N 33°23' E 131°43'0 0.0
2017-Dec-02 01:00N 33°23' E 131°43'0 0.1
2017-Dec-02 00:27N 33°23' E 131°43'0 0.0
2017-Dec-02 00:00N 33°23' E 131°43'0 0.0
2017-Dec-01 23:30N 33°23' E 131°43'0 0.0
2017-Dec-01 23:00N 33°23' E 131°43'0 0.0
2017-Dec-01 22:27N 33°23' E 131°43'0 0.0
2017-Dec-01 21:54N 33°23' E 131°43'0 0.0
2017-Dec-01 21:30N 33°23' E 131°43'0 0.0
2017-Dec-01 20:54N 33°23' E 131°43'0 0.0
2017-Dec-01 20:30N 33°23' E 131°43'0 0.1
2017-Dec-01 20:00N 33°23' E 131°43'0 0.1
2017-Dec-01 19:30N 33°23' E 131°43'0 0.0
2017-Dec-01 19:00N 33°23' E 131°43'0 0.0
2017-Dec-01 18:30N 33°23' E 131°43'0 0.0
2017-Dec-01 18:00N 33°23' E 131°43'0 0.0
2017-Dec-01 17:30N 33°23' E 131°43'0 0.0
2017-Dec-01 16:57N 33°23' E 131°43'0 0.1
2017-Dec-01 16:31N 33°23' E 131°43'711.9
2017-Dec-01 15:57N 33°20' E 131°51'613.0
2017-Dec-01 15:30N 33°19' E 131°57'  
Track history (hours):
 
Tides and Currents Weather Stations Pressure Air Temp Water Temp Dewpoint Dewpoint Depression Visibility Wind Speed Wind Dir Waves Ship Positions

Kinyo Maru No.2

Last reported at 2017-Dec-10 12:32 UTC. Time now 2017-Dec-13 22:16 UTC.
Position N 41°19' E 141°35'.

Length 104 m; draft 4.8 m.

Type: Tanker. MMSI: 431001757.

Date/timePositionNaut miles runAvg speedWind from/ knotsBaromVisibWave heightAir tempDewpointWater temp
2017-Dec-10 12:32N 41°19' E 141°35'512.5
2017-Dec-10 12:10N 41°23' E 141°34'212.4
2017-Dec-10 12:00N 41°25' E 141°33'713.5
2017-Dec-10 11:30N 41°32' E 141°30'713.8
2017-Dec-10 11:00N 41°38' E 141°25'713.2
2017-Dec-10 10:30N 41°43' E 141°21'713.6
2017-Dec-10 10:00N 41°49' E 141°16'2 0.1
2017-Dec-09 22:31N 41°50' E 141°18'312.7
2017-Dec-09 22:16N 41°48' E 141°20'712.8
2017-Dec-09 21:43N 41°42' E 141°25'313.3
2017-Dec-09 21:28N 41°39' E 141°27'712.2
2017-Dec-09 20:53N 41°32' E 141°30'611.9
2017-Dec-09 20:25N 41°27' E 141°33'39211.9
2017-Dec-08 11:37N 35°00' E 140°12'315.0
2017-Dec-08 11:24N 34°59' E 140°08'914.3
2017-Dec-08 10:46N 34°53' E 139°59'713.4
2017-Dec-08 10:16N 34°50' E 139°52'413.3
2017-Dec-08 10:00N 34°48' E 139°48'2913.5
2017-Dec-08 07:50N 34°36' E 139°16'515.1
2017-Dec-08 07:30N 34°35' E 139°10'815.4
2017-Dec-08 06:59N 34°33' E 139°01'1514.7
2017-Dec-08 05:56N 34°31' E 138°42'714.7
2017-Dec-08 05:26N 34°30' E 138°33'814.3
2017-Dec-08 04:51N 34°28' E 138°23'614.1
2017-Dec-08 04:24N 34°28' E 138°16'1513.9
2017-Dec-08 03:21N 34°26' E 137°58'15111.3
2017-Dec-07 14:00N 33°53' E 135°00'713.4
2017-Dec-07 13:30N 33°60' E 135°01'713.4
2017-Dec-07 13:00N 34°06' E 135°04'3 2.2
2017-Dec-07 11:31N 34°07' E 135°07'0 0.0
2017-Dec-07 11:07N 34°07' E 135°07'0 0.0
2017-Dec-07 10:43N 34°07' E 135°07'0 0.0
2017-Dec-07 03:10N 34°07' E 135°07'0 0.1
2017-Dec-07 03:00N 34°07' E 135°07'1 2.0
2017-Dec-07 02:29N 34°08' E 135°06'0 0.1
2017-Dec-07 01:59N 34°08' E 135°06'0 0.0
2017-Dec-07 01:29N 34°08' E 135°06'0 0.1
2017-Dec-07 00:59N 34°08' E 135°06'0 0.0
2017-Dec-07 00:29N 34°08' E 135°06'0 0.0
2017-Dec-06 23:59N 34°08' E 135°06'0 0.1
2017-Dec-06 23:26N 34°08' E 135°06'0 0.1
2017-Dec-06 22:59N 34°08' E 135°06'0 0.0
2017-Dec-06 22:29N 34°08' E 135°06'0 0.0
2017-Dec-06 21:59N 34°08' E 135°06'0 0.0
2017-Dec-06 21:29N 34°08' E 135°06'0 0.0
2017-Dec-06 20:59N 34°08' E 135°06'  
2017-Dec-04 10:30N 34°32' E 135°20'0 0.0
2017-Dec-04 09:57N 34°32' E 135°20'0 0.1
2017-Dec-04 09:30N 34°32' E 135°20'0 0.0
2017-Dec-04 08:57N 34°32' E 135°20'0 0.1
2017-Dec-04 08:30N 34°32' E 135°20'0 0.0
2017-Dec-04 08:00N 34°32' E 135°20'3 6.9
2017-Dec-04 07:30N 34°30' E 135°17'714.1
2017-Dec-04 07:01N 34°26' E 135°10'713.7
2017-Dec-04 06:31N 34°22' E 135°04'612.2
2017-Dec-04 06:00N 34°17' E 134°59'612.9
2017-Dec-04 05:30N 34°12' E 135°04'713.2
2017-Dec-04 05:00N 34°09' E 135°12'0 0.1
2017-Dec-04 00:59N 34°09' E 135°12'0 0.7
2017-Dec-04 00:30N 34°09' E 135°12'2 4.1
2017-Dec-03 23:58N 34°09' E 135°09'0 0.0
2017-Dec-03 23:28N 34°09' E 135°09'0 0.1
2017-Dec-03 22:58N 34°09' E 135°09'0 0.1
2017-Dec-03 22:28N 34°09' E 135°09'0 0.0
2017-Dec-03 21:58N 34°09' E 135°09'0 0.1
2017-Dec-03 21:25N 34°09' E 135°09'0 0.0
2017-Dec-03 20:58N 34°09' E 135°09'0 0.0
2017-Dec-03 20:28N 34°09' E 135°09'0 0.0
2017-Dec-03 20:00N 34°09' E 135°09'0 0.2
2017-Dec-03 19:30N 34°10' E 135°09'611.3
2017-Dec-03 19:00N 34°13' E 135°03'612.4
2017-Dec-03 18:30N 34°17' E 134°58'714.2
2017-Dec-03 18:00N 34°24' E 135°00'714.1
2017-Dec-03 17:30N 34°31' E 135°02'612.5
2017-Dec-03 17:01N 34°37' E 134°60'917.5
2017-Dec-03 16:30N 34°33' E 134°50'714.9
2017-Dec-03 16:00N 34°30' E 134°42'714.3
2017-Dec-03 15:30N 34°27' E 134°34'714.2
2017-Dec-03 15:00N 34°25' E 134°26'914.4
2017-Dec-03 14:22N 34°24' E 134°15'515.2
2017-Dec-03 14:00N 34°26' E 134°09'72 3.5
2017-Dec-02 17:32N 34°01' E 132°46'012.9
2017-Dec-02 17:30N 34°01' E 132°46'611.9
2017-Dec-02 17:00N 33°56' E 132°41'611.6
2017-Dec-02 16:30N 33°52' E 132°36'612.4
2017-Dec-02 16:00N 33°48' E 132°31'712.8
2017-Dec-02 15:29N 33°44' E 132°24'2612.8
2017-Dec-02 13:26N 33°28' E 131°59'612.9
2017-Dec-02 12:58N 33°25' E 131°53'714.0
2017-Dec-02 12:29N 33°21' E 131°47'613.4
2017-Dec-02 12:01N 33°17' E 131°41'0 0.1
2017-Dec-02 04:43N 33°17' E 131°41'0 0.4
2017-Dec-02 04:30N 33°17' E 131°41'4 9.1
2017-Dec-02 04:00N 33°21' E 131°42'2 1.3
2017-Dec-02 02:36N 33°23' E 131°43'0 0.0
2017-Dec-02 02:30N 33°23' E 131°43'0 0.0
2017-Dec-02 02:00N 33°23' E 131°43'0 0.0
2017-Dec-02 01:30N 33°23' E 131°43'0 0.0
2017-Dec-02 01:00N 33°23' E 131°43'0 0.1
2017-Dec-02 00:27N 33°23' E 131°43'0 0.0
2017-Dec-02 00:00N 33°23' E 131°43'0 0.0
2017-Dec-01 23:30N 33°23' E 131°43'0 0.0
2017-Dec-01 23:00N 33°23' E 131°43'0 0.0
2017-Dec-01 22:27N 33°23' E 131°43'0 0.0
2017-Dec-01 21:54N 33°23' E 131°43'0 0.0
2017-Dec-01 21:30N 33°23' E 131°43'0 0.0
2017-Dec-01 20:54N 33°23' E 131°43'0 0.0
2017-Dec-01 20:30N 33°23' E 131°43'0 0.1
2017-Dec-01 20:00N 33°23' E 131°43'0 0.1
2017-Dec-01 19:30N 33°23' E 131°43'0 0.0
2017-Dec-01 19:00N 33°23' E 131°43'0 0.0
2017-Dec-01 18:30N 33°23' E 131°43'0 0.0
2017-Dec-01 18:00N 33°23' E 131°43'0 0.0
2017-Dec-01 17:30N 33°23' E 131°43'0 0.0
2017-Dec-01 16:57N 33°23' E 131°43'0 0.1
2017-Dec-01 16:31N 33°23' E 131°43'711.9
2017-Dec-01 15:57N 33°20' E 131°51'613.0
2017-Dec-01 15:30N 33°19' E 131°57'  

Dump ship's entire track history